Pinebluff, North Carolina
Current Conditions -  °F | °C
As of 11:56 PM on Wednesday 22 Oct 2014 (Local Time) from KHFF Reporting Station
Clear Clear  
Wind Chill:   Ceiling: Unl
Heat Index:   Visibility: 10mi
Dew Point:   Wind: 5mph
Humidity: 76%   Direction: 280°W
Pressure: 30.08"   Gusts: NA
Location:  35.11°N, 79.47°W
Report Text: KHFF 230356Z AUTO 28004KT 10SM CLR 09/05 A3008 RMK AO2 SLP188 T00930052
Loading
Personal Weather Stations






























Interactive Weather Map
Tropical Storm Tracking
New forecast layout! Learn more

10-Day Weather Forecast

Advertisements
Track Severe Weather on mobile